Time;durP1;ratioP1;P1;durP2;ratioP2;P2;SDS_P1;SDS_P2;PMS_P1;PMS_P2;Temp;Humidity;BMP_temperature;BMP_pressure;BME280_temperature;BME280_humidity;BME280_pressure;Samples;Min_cycle;Max_cycle;Signal;HPM_P1;HPM_P2
2023/01/04 00:02:01;;;;;;;2.92;2.72;;;4.30;99.90;;;;;;5029951;28;20197;-67
2023/01/04 00:04:28;;;;;;;1.65;1.45;;;4.20;99.90;;;;;;5029342;28;20197;-66
2023/01/04 00:06:56;;;;;;;1.60;1.52;;;4.10;99.90;;;;;;5028044;28;20211;-67
2023/01/04 00:09:23;;;;;;;1.10;1.10;;;4.10;99.90;;;;;;5028835;28;20204;-67
2023/01/04 00:11:50;;;;;;;2.38;2.17;;;4.00;99.90;;;;;;5030261;28;20223;-67
2023/01/04 00:14:17;;;;;;;2.15;2.05;;;4.10;99.90;;;;;;5029162;28;20211;-67
2023/01/04 00:16:45;;;;;;;3.88;3.35;;;4.10;99.90;;;;;;5029662;28;20248;-69
2023/01/04 00:19:12;;;;;;;2.75;1.38;;;4.10;99.90;;;;;;5028618;28;20282;-68
2023/01/04 00:21:39;;;;;;;2.05;1.63;;;4.10;99.90;;;;;;5028681;28;20201;-66
2023/01/04 00:24:09;;;;;;;5.40;2.22;;;4.10;99.90;;;;;;5045051;28;20204;-67
2023/01/04 00:26:36;;;;;;;2.80;2.60;;;4.10;99.90;;;;;;5048914;28;20207;-67
2023/01/04 00:29:05;;;;;;;2.78;1.77;;;4.10;99.90;;;;;;5035295;28;20200;-67
2023/01/04 00:31:33;;;;;;;1.52;1.42;;;4.10;99.90;;;;;;5041160;28;20231;-67
2023/01/04 00:34:02;;;;;;;1.50;1.20;;;3.90;99.90;;;;;;5042741;28;20193;-67
2023/01/04 00:36:29;;;;;;;2.47;1.50;;;3.90;99.90;;;;;;5028419;28;20223;-67
2023/01/04 00:39:08;;;;;;;4.95;1.65;;;3.90;99.90;;;;;;5028784;28;20205;-67
2023/01/04 00:41:39;;;;;;;3.22;3.03;;;3.90;99.90;;;;;;5038384;28;20294;-68
2023/01/04 00:44:07;;;;;;;2.60;1.80;;;4.00;99.90;;;;;;5030235;28;20211;-67
2023/01/04 00:46:35;;;;;;;6.40;2.40;;;3.90;99.90;;;;;;5029822;28;20882;-67
2023/01/04 00:49:03;;;;;;;3.00;1.63;;;4.00;99.90;;;;;;5028756;28;20192;-67
2023/01/04 00:51:31;;;;;;;1.55;1.08;;;3.70;99.90;;;;;;5029446;28;20211;-67
2023/01/04 00:53:59;;;;;;;2.33;1.10;;;3.90;99.90;;;;;;5045803;28;20203;-67
2023/01/04 00:56:28;;;;;;;2.63;2.42;;;3.90;99.90;;;;;;5047610;28;20215;-67
2023/01/04 00:58:56;;;;;;;2.10;1.92;;;3.90;99.90;;;;;;5030487;28;20213;-67
2023/01/04 01:01:24;;;;;;;3.67;2.55;;;3.80;99.90;;;;;;5028971;28;20199;-67
2023/01/04 01:03:53;;;;;;;2.50;1.55;;;3.80;99.90;;;;;;5044092;28;20207;-67
2023/01/04 01:06:21;;;;;;;1.35;1.25;;;3.80;99.90;;;;;;5047772;28;20286;-68
2023/01/04 01:08:48;;;;;;;1.98;1.88;;;3.70;99.90;;;;;;5032464;28;20209;-67
2023/01/04 01:11:15;;;;;;;2.70;2.35;;;3.70;99.90;;;;;;5043386;28;20200;-67
2023/01/04 01:13:41;;;;;;;2.03;1.83;;;3.80;99.90;;;;;;5024853;28;20208;-67
2023/01/04 01:16:12;;;;;;;1.75;1.65;;;3.80;99.90;;;;;;5027825;28;20208;-67
2023/01/04 01:18:40;;;;;;;2.67;1.48;;;3.70;99.90;;;;;;5043125;28;20235;-67
2023/01/04 01:21:08;;;;;;;2.08;1.80;;;3.80;99.90;;;;;;5046836;28;20203;-68
2023/01/04 01:23:35;;;;;;;3.03;1.75;;;3.80;99.90;;;;;;5032180;28;20210;-67
2023/01/04 01:26:02;;;;;;;4.60;2.45;;;3.70;99.90;;;;;;5027492;28;20205;-67
2023/01/04 01:28:30;;;;;;;4.55;1.35;;;3.70;99.90;;;;;;5028455;28;20409;-67
2023/01/04 01:30:58;;;;;;;2.08;1.10;;;3.80;99.90;;;;;;5027284;28;20205;-67
2023/01/04 01:33:26;;;;;;;1.88;1.50;;;3.70;99.90;;;;;;5039654;28;20279;-66
2023/01/04 01:35:53;;;;;;;1.90;1.67;;;3.60;99.90;;;;;;5026830;28;20659;-67
2023/01/04 01:38:20;;;;;;;2.20;1.65;;;3.60;99.90;;;;;;5026816;28;20714;-68
2023/01/04 01:40:46;;;;;;;1.67;1.27;;;3.60;99.90;;;;;;5027045;28;20192;-67
2023/01/04 01:43:18;;;;;;;3.33;1.13;;;3.60;99.90;;;;;;5027039;28;20204;-67
2023/01/04 01:45:47;;;;;;;2.25;2.03;;;3.70;99.90;;;;;;5029823;28;20197;-67
2023/01/04 01:48:17;;;;;;;6.28;2.95;;;3.60;99.90;;;;;;5042162;28;20556;-67
2023/01/04 01:50:50;;;;;;;3.03;2.10;;;3.60;99.90;;;;;;5044243;28;20200;-66
2023/01/04 01:53:17;;;;;;;3.25;1.25;;;3.50;99.90;;;;;;5035019;28;20203;-67
2023/01/04 01:55:46;;;;;;;0.65;0.65;;;3.40;99.90;;;;;;5027670;28;20232;-67
2023/01/04 01:58:21;;;;;;;1.40;1.20;;;3.40;99.90;;;;;;5038477;28;20227;-67
2023/01/04 02:00:48;;;;;;;2.20;2.00;;;3.40;99.90;;;;;;5014356;28;20214;-68
2023/01/04 02:03:18;;;;;;;2.05;1.13;;;3.50;99.90;;;;;;5035596;28;20207;-68
2023/01/04 02:05:50;;;;;;;2.75;2.10;;;3.60;99.90;;;;;;5006100;28;20213;-66
2023/01/04 02:08:18;;;;;;;4.03;1.52;;;3.70;99.90;;;;;;5039761;28;20264;-68
2023/01/04 02:10:46;;;;;;;2.13;1.95;;;3.70;99.90;;;;;;5046630;28;20235;-67
2023/01/04 02:13:17;;;;;;;1.52;1.27;;;3.80;99.90;;;;;;5046192;28;20704;-68
2023/01/04 02:15:57;;;;;;;2.03;1.25;;;3.70;99.90;;;;;;5007087;28;20691;-67
2023/01/04 02:18:31;;;;;;;1.88;1.27;;;3.70;99.90;;;;;;5042563;28;20697;-67
2023/01/04 02:21:04;;;;;;;1.25;1.25;;;3.60;99.90;;;;;;5045682;28;20662;-67
2023/01/04 02:24:07;;;;;;;3.03;1.38;;;3.80;99.90;;;;;;5043231;28;20326;-67
2023/01/04 02:27:15;;;;;;;3.33;2.72;;;3.70;99.90;;;;;;5000944;28;20217;-67
2023/01/04 02:30:21;;;;;;;1.80;1.20;;;3.70;99.90;;;;;;5019675;28;20205;-67
2023/01/04 02:33:11;;;;;;;1.70;1.60;;;3.80;99.90;;;;;;5038507;28;20291;-67
2023/01/04 02:35:47;;;;;;;1.20;0.70;;;3.80;99.90;;;;;;5050348;28;20214;-67
2023/01/04 02:38:22;;;;;;;1.80;1.70;;;3.80;99.90;;;;;;5035331;28;20242;-67
2023/01/04 02:40:56;;;;;;;0.90;0.90;;;3.70;99.90;;;;;;5031668;28;20200;-67
2023/01/04 02:46:23;;;;;;;2.35;1.50;;;3.90;99.90;;;;;;5012700;28;20204;-67
2023/01/04 02:51:38;;;;;;;0.80;0.52;;;3.90;99.90;;;;;;5030346;28;20208;-67
2023/01/04 02:54:10;;;;;;;1.83;1.13;;;3.90;99.90;;;;;;5030611;28;20223;-67
2023/01/04 02:56:52;;;;;;;1.17;0.90;;;4.00;99.90;;;;;;5030392;28;20250;-67
2023/01/04 02:59:34;;;;;;;1.50;1.10;;;3.90;99.90;;;;;;5037432;28;20283;-67
2023/01/04 03:08:01;;;;;;;1.65;1.52;;;3.80;99.90;;;;;;5046211;28;20199;-68
2023/01/04 03:10:37;;;;;;;0.88;0.88;;;3.90;99.90;;;;;;5042927;28;20685;-67
2023/01/04 03:13:08;;;;;;;1.60;1.50;;;3.80;99.90;;;;;;5029778;28;20310;-69
2023/01/04 03:15:38;;;;;;;0.50;0.50;;;3.90;99.90;;;;;;5030414;28;20291;-67
2023/01/04 03:18:13;;;;;;;1.25;1.15;;;3.90;99.90;;;;;;5030881;28;20242;-67
2023/01/04 03:20:44;;;;;;;2.90;0.77;;;3.90;99.90;;;;;;5043849;28;20203;-67
2023/01/04 03:37:23;;;;;;;1.50;1.45;;;3.80;99.90;;;;;;5048069;28;20215;-67
2023/01/04 03:48:44;;;;;;;0.75;0.70;;;3.70;99.90;;;;;;5043834;28;20627;-67
2023/01/04 03:51:16;;;;;;;1.30;1.10;;;3.70;99.90;;;;;;5049132;28;20210;-66
2023/01/04 03:53:54;;;;;;;1.30;1.15;;;3.70;99.90;;;;;;5048114;28;20686;-68
2023/01/04 03:56:24;;;;;;;1.15;1.05;;;3.70;99.90;;;;;;5029147;28;20266;-68
2023/01/04 03:58:53;;;;;;;0.77;0.75;;;3.80;99.90;;;;;;5041063;28;20232;-68
2023/01/04 04:01:24;;;;;;;0.98;0.80;;;3.90;99.90;;;;;;5029108;28;20701;-67
2023/01/04 04:09:22;;;;;;;0.43;0.43;;;3.90;99.90;;;;;;5031885;28;20295;-68
2023/01/04 04:11:49;;;;;;;1.42;0.98;;;4.00;99.90;;;;;;5048604;28;20210;-67
2023/01/04 04:14:16;;;;;;;1.95;1.77;;;4.10;99.90;;;;;;5048225;28;20200;-67
2023/01/04 04:16:43;;;;;;;0.70;0.70;;;4.10;99.90;;;;;;5046360;28;20279;-68
2023/01/04 04:19:09;;;;;;;0.90;0.65;;;4.10;99.90;;;;;;5048522;28;20235;-67
2023/01/04 04:21:37;;;;;;;0.47;0.47;;;4.20;99.90;;;;;;5047883;28;20214;-67
2023/01/04 04:24:04;;;;;;;3.90;1.42;;;4.30;99.90;;;;;;5028588;28;20201;-67
2023/01/04 04:26:32;;;;;;;0.98;0.98;;;4.30;99.90;;;;;;5028876;28;20201;-68
2023/01/04 04:28:59;;;;;;;1.00;0.45;;;4.30;99.90;;;;;;5031933;28;20193;-68
2023/01/04 04:31:26;;;;;;;0.98;0.80;;;4.30;99.90;;;;;;5034317;28;20210;-67
2023/01/04 04:33:53;;;;;;;0.70;0.68;;;4.30;99.90;;;;;;5038446;28;20192;-68
2023/01/04 04:36:19;;;;;;;0.50;0.50;;;4.40;99.90;;;;;;5028205;28;20487;-69
2023/01/04 04:38:46;;;;;;;1.05;1.05;;;4.50;99.90;;;;;;5028362;28;20235;-67
2023/01/04 04:44:00;;;;;;;1.00;1.00;;;4.40;99.90;;;;;;5032321;28;20220;-67
2023/01/04 04:46:26;;;;;;;0.63;0.63;;;4.40;99.90;;;;;;5048079;28;20204;-67
2023/01/04 04:48:53;;;;;;;2.25;1.65;;;4.50;99.90;;;;;;5046234;28;20200;-67
2023/01/04 04:51:20;;;;;;;0.88;0.88;;;4.50;99.90;;;;;;5046893;28;20204;-68
2023/01/04 04:53:48;;;;;;;0.60;0.60;;;4.60;99.90;;;;;;5035709;28;20208;-68
2023/01/04 04:56:16;;;;;;;1.05;0.95;;;4.60;99.90;;;;;;5029268;28;20746;-67
2023/01/04 04:58:42;;;;;;;1.75;1.52;;;4.60;99.90;;;;;;5035526;28;20216;-68
2023/01/04 05:01:11;;;;;;;0.50;0.40;;;4.60;99.90;;;;;;5027099;28;20193;-67
2023/01/04 05:03:38;;;;;;;0.80;0.55;;;4.60;99.90;;;;;;5028237;28;20201;-68
2023/01/04 05:06:05;;;;;;;3.10;1.58;;;4.60;99.90;;;;;;5047400;28;20271;-68
2023/01/04 05:08:32;;;;;;;1.25;1.15;;;4.60;99.90;;;;;;5030265;28;20205;-67
2023/01/04 05:10:59;;;;;;;2.53;2.05;;;4.60;99.90;;;;;;5028326;28;20208;-67
2023/01/04 05:13:25;;;;;;;0.63;0.63;;;4.60;99.90;;;;;;5018403;28;20211;-68
2023/01/04 05:15:54;;;;;;;0.85;0.82;;;4.60;99.90;;;;;;5045132;28;20196;-67
2023/01/04 05:18:22;;;;;;;0.98;0.98;;;4.70;99.90;;;;;;5032387;28;20228;-68
2023/01/04 05:20:50;;;;;;;0.63;0.50;;;4.80;99.90;;;;;;5028454;28;20203;-68
2023/01/04 05:23:18;;;;;;;1.45;0.70;;;4.80;99.90;;;;;;5039720;28;20197;-67
2023/01/04 05:25:45;;;;;;;0.88;0.88;;;4.80;99.90;;;;;;5029979;28;20205;-67
2023/01/04 05:28:12;;;;;;;3.88;1.20;;;5.00;99.90;;;;;;5027863;28;20721;-68
2023/01/04 05:30:50;;;;;;;1.35;1.15;;;4.90;99.90;;;;;;5027912;28;20568;-68
2023/01/04 05:33:18;;;;;;;0.65;0.60;;;4.90;99.90;;;;;;5041310;28;20203;-68
2023/01/04 05:35:46;;;;;;;0.82;0.55;;;4.80;99.90;;;;;;5047026;28;20188;-67
2023/01/04 05:38:13;;;;;;;1.20;0.88;;;4.90;99.90;;;;;;5038328;28;20224;-67
2023/01/04 05:40:40;;;;;;;2.00;1.50;;;4.90;99.90;;;;;;5028606;28;20197;-67
2023/01/04 05:43:07;;;;;;;1.65;1.00;;;5.10;99.90;;;;;;5027282;28;20197;-67
2023/01/04 05:45:35;;;;;;;2.45;1.63;;;5.10;99.90;;;;;;5042588;28;20296;-67
2023/01/04 05:48:02;;;;;;;1.55;1.45;;;5.10;99.90;;;;;;5040679;28;20670;-68
2023/01/04 05:50:29;;;;;;;0.70;0.63;;;5.10;99.90;;;;;;5032605;28;20574;-67
2023/01/04 05:52:57;;;;;;;0.60;0.57;;;5.10;99.90;;;;;;5037571;28;20205;-67
2023/01/04 05:55:24;;;;;;;0.80;0.68;;;5.10;99.90;;;;;;5037711;28;20279;-68
2023/01/04 05:57:51;;;;;;;1.30;0.93;;;5.10;99.90;;;;;;5036509;28;20983;-67
2023/01/04 06:00:18;;;;;;;1.70;1.63;;;5.20;99.90;;;;;;5034736;28;20292;-68
2023/01/04 06:02:45;;;;;;;1.13;0.82;;;5.20;99.90;;;;;;5027649;28;20249;-70
2023/01/04 06:05:12;;;;;;;1.05;1.05;;;5.30;99.90;;;;;;5038143;28;20287;-68
2023/01/04 06:07:40;;;;;;;2.10;1.50;;;5.30;99.90;;;;;;5020014;28;20734;-67
2023/01/04 06:10:11;;;;;;;2.47;1.23;;;5.40;99.90;;;;;;5037915;28;20681;-68
2023/01/04 06:12:39;;;;;;;1.80;0.80;;;5.50;99.90;;;;;;5025248;28;20208;-68
2023/01/04 06:15:07;;;;;;;0.98;0.70;;;5.40;99.90;;;;;;5025629;28;20709;-67
2023/01/04 06:17:35;;;;;;;1.23;1.02;;;5.50;99.90;;;;;;5024652;28;20212;-67
2023/01/04 06:20:02;;;;;;;1.02;0.63;;;5.50;99.90;;;;;;5027191;28;20236;-67
2023/01/04 06:22:29;;;;;;;0.70;0.68;;;5.50;99.90;;;;;;5032471;28;20292;-67
2023/01/04 06:24:56;;;;;;;0.95;0.65;;;5.50;99.90;;;;;;5034531;28;20209;-68
2023/01/04 06:27:24;;;;;;;1.60;1.33;;;5.50;99.90;;;;;;5026962;28;20208;-68
2023/01/04 06:29:51;;;;;;;0.45;0.43;;;5.50;99.90;;;;;;5031420;28;20746;-67
2023/01/04 06:32:18;;;;;;;0.40;0.40;;;5.50;99.90;;;;;;5029926;28;20199;-68
2023/01/04 06:34:45;;;;;;;0.98;0.88;;;5.50;99.90;;;;;;5046577;28;20202;-67
2023/01/04 06:37:12;;;;;;;1.55;1.42;;;5.50;99.90;;;;;;5038616;28;20207;-68
2023/01/04 06:39:39;;;;;;;0.80;0.70;;;5.60;99.90;;;;;;5026567;28;20225;-68
2023/01/04 06:42:43;;;;;;;0.30;0.25;;;5.50;99.90;;;;;;5019202;28;20193;-67
2023/01/04 06:44:54;;;;;;;0.73;0.73;;;5.60;99.90;;;;;;5034727;28;20311;-68
2023/01/04 06:47:21;;;;;;;2.55;1.63;;;5.60;99.90;;;;;;5044987;28;20215;-68
2023/01/04 06:49:47;;;;;;;0.63;0.63;;;5.50;99.90;;;;;;5039607;28;20221;-68
2023/01/04 06:52:14;;;;;;;1.33;0.70;;;5.70;99.90;;;;;;5025889;28;20203;-69
2023/01/04 06:54:41;;;;;;;1.15;1.10;;;5.70;99.90;;;;;;5023134;28;20193;-67
2023/01/04 06:57:08;;;;;;;0.75;0.75;;;6.30;99.90;;;;;;5040790;28;21804;-68
2023/01/04 06:59:34;;;;;;;0.60;0.47;;;5.70;99.90;;;;;;5038577;28;20226;-68
2023/01/04 07:02:02;;;;;;;0.52;0.52;;;5.80;99.90;;;;;;5030031;28;20204;-68
2023/01/04 07:04:29;;;;;;;1.23;1.13;;;5.70;99.90;;;;;;5045196;28;20196;-67
2023/01/04 07:06:57;;;;;;;1.15;1.15;;;5.70;99.90;;;;;;5027655;28;20202;-68
2023/01/04 07:09:23;;;;;;;0.88;0.80;;;5.70;99.90;;;;;;5025005;28;20193;-69
2023/01/04 07:11:50;;;;;;;1.17;1.13;;;5.70;99.90;;;;;;5036216;28;20210;-67
2023/01/04 07:14:17;;;;;;;0.55;0.55;;;5.70;99.90;;;;;;5032440;28;20204;-67
2023/01/04 07:16:44;;;;;;;0.65;0.65;;;5.80;99.90;;;;;;5030964;28;20197;-67
2023/01/04 07:19:12;;;;;;;0.95;0.95;;;6.60;99.90;;;;;;5030197;28;20223;-67
2023/01/04 07:21:39;;;;;;;0.88;0.70;;;6.00;99.90;;;;;;5029521;28;20201;-68
2023/01/04 07:24:05;;;;;;;0.55;0.52;;;5.90;99.90;;;;;;5023217;28;20674;-68
2023/01/04 07:26:33;;;;;;;0.55;0.40;;;5.90;99.90;;;;;;5041006;28;20643;-67
2023/01/04 07:29:15;;;;;;;1.42;1.30;;;5.90;99.90;;;;;;5041154;28;20198;-67
2023/01/04 07:31:44;;;;;;;0.52;0.40;;;5.80;99.90;;;;;;5029009;28;20214;-67
2023/01/04 07:34:12;;;;;;;0.95;0.95;;;5.90;99.90;;;;;;5030252;28;20548;-67
2023/01/04 07:36:39;;;;;;;0.95;0.95;;;5.90;99.90;;;;;;5031334;28;20188;-68
2023/01/04 07:39:08;;;;;;;0.80;0.80;;;5.90;99.90;;;;;;5029980;28;20582;-67
2023/01/04 07:41:36;;;;;;;0.90;0.52;;;5.90;99.90;;;;;;5029921;28;20207;-67
2023/01/04 07:44:03;;;;;;;0.70;0.50;;;5.80;99.90;;;;;;5029723;28;20296;-67
2023/01/04 07:46:29;;;;;;;1.60;0.88;;;5.80;99.90;;;;;;5042016;28;20202;-67
2023/01/04 07:48:56;;;;;;;2.17;0.82;;;5.80;99.90;;;;;;5029788;28;20197;-68
2023/01/04 07:51:24;;;;;;;1.35;1.10;;;5.80;99.90;;;;;;5029543;28;20205;-67
2023/01/04 07:53:51;;;;;;;1.20;0.40;;;5.70;99.90;;;;;;5030100;28;20203;-68
2023/01/04 07:56:18;;;;;;;0.40;0.40;;;5.60;99.90;;;;;;5024951;28;20282;-68
2023/01/04 07:58:45;;;;;;;1.10;0.65;;;5.60;99.90;;;;;;5043743;28;20231;-68
2023/01/04 08:01:14;;;;;;;0.40;0.40;;;5.70;99.90;;;;;;5033175;28;20196;-69
2023/01/04 08:03:41;;;;;;;0.45;0.45;;;5.60;99.90;;;;;;5049755;28;20218;-68
2023/01/04 08:06:10;;;;;;;0.30;0.30;;;5.70;99.90;;;;;;5040212;28;20209;-68
2023/01/04 08:08:39;;;;;;;0.47;0.40;;;5.60;99.90;;;;;;5029824;28;20206;-68
2023/01/04 08:11:08;;;;;;;0.65;0.65;;;5.60;99.90;;;;;;5021514;28;20299;-68
2023/01/04 08:13:35;;;;;;;0.30;0.25;;;5.60;99.90;;;;;;5028911;28;20205;-69
2023/01/04 08:16:01;;;;;;;1.23;0.70;;;5.50;99.90;;;;;;5036360;28;20211;-69
2023/01/04 08:18:28;;;;;;;0.63;0.40;;;5.50;99.90;;;;;;5047332;28;20337;-68
2023/01/04 08:21:02;;;;;;;0.60;0.30;;;5.60;99.90;;;;;;5049462;28;20204;-68
2023/01/04 08:23:29;;;;;;;1.98;0.95;;;5.50;99.90;;;;;;5038167;28;20210;-69
2023/01/04 08:26:02;;;;;;;0.40;0.40;;;5.60;99.90;;;;;;5040047;28;20213;-69
2023/01/04 08:28:29;;;;;;;15.35;1.75;;;5.60;99.90;;;;;;5036283;28;20196;-68
2023/01/04 08:30:56;;;;;;;3.85;0.90;;;5.70;99.90;;;;;;5041945;28;20199;-68
2023/01/04 08:33:23;;;;;;;0.40;0.40;;;5.80;99.90;;;;;;5034810;28;20259;-69
2023/01/04 08:35:50;;;;;;;0.80;0.80;;;5.80;99.90;;;;;;5028387;28;20303;-68
2023/01/04 08:38:17;;;;;;;0.65;0.30;;;5.70;99.90;;;;;;5028993;28;20208;-68
2023/01/04 08:40:44;;;;;;;0.50;0.45;;;5.70;99.90;;;;;;5027934;28;20699;-69
2023/01/04 08:43:12;;;;;;;0.50;0.50;;;5.70;99.90;;;;;;5032040;28;20208;-69
2023/01/04 08:45:39;;;;;;;5.47;0.70;;;5.60;99.90;;;;;;5028980;28;20754;-69
2023/01/04 08:48:06;;;;;;;0.50;0.50;;;5.70;99.90;;;;;;5041673;28;20196;-69
2023/01/04 08:50:33;;;;;;;0.30;0.20;;;5.80;99.90;;;;;;5031791;28;20626;-69
2023/01/04 08:52:59;;;;;;;1.80;0.75;;;5.90;99.90;;;;;;5036475;28;20724;-69
2023/01/04 08:55:26;;;;;;;0.68;0.65;;;5.80;99.90;;;;;;5043481;28;20579;-69
2023/01/04 08:57:53;;;;;;;0.55;0.40;;;5.80;99.90;;;;;;5036339;28;20848;-69
2023/01/04 09:00:21;;;;;;;0.50;0.50;;;5.80;99.90;;;;;;5013736;28;20850;-68
2023/01/04 09:02:48;;;;;;;0.40;0.40;;;5.80;99.90;;;;;;5019394;28;20261;-69
2023/01/04 09:05:15;;;;;;;0.93;0.63;;;5.90;99.90;;;;;;5048242;28;20700;-68
2023/01/04 09:07:41;;;;;;;0.63;0.40;;;5.90;99.90;;;;;;5036312;28;20207;-69
2023/01/04 09:10:09;;;;;;;0.70;0.70;;;5.90;99.90;;;;;;5027698;28;20215;-69
2023/01/04 09:12:36;;;;;;;0.50;0.40;;;5.90;99.90;;;;;;5018779;28;20250;-68
2023/01/04 09:15:03;;;;;;;0.30;0.30;;;6.00;99.90;;;;;;5015147;28;20239;-69
2023/01/04 09:17:31;;;;;;;0.50;0.50;;;6.00;99.90;;;;;;5038766;28;20207;-68
2023/01/04 09:19:58;;;;;;;0.65;0.65;;;;;;;;;;5012215;28;20279;-68
2023/01/04 09:22:25;;;;;;;0.57;0.25;;;6.00;99.90;;;;;;5018060;28;20192;-68
2023/01/04 09:24:52;;;;;;;0.40;0.30;;;6.00;99.90;;;;;;5027221;28;20205;-68
2023/01/04 09:27:19;;;;;;;1.10;0.30;;;6.00;99.90;;;;;;5018026;28;20192;-68
2023/01/04 09:29:47;;;;;;;0.68;0.50;;;6.00;99.90;;;;;;5016216;28;20230;-69
2023/01/04 09:32:13;;;;;;;0.35;0.35;;;6.10;99.90;;;;;;5013576;28;20303;-68
2023/01/04 09:34:41;;;;;;;0.63;0.63;;;6.10;99.90;;;;;;5029843;28;20192;-68
2023/01/04 09:37:08;;;;;;;0.30;0.30;;;6.20;99.90;;;;;;5031992;28;20222;-67
2023/01/04 09:39:35;;;;;;;0.30;0.20;;;6.20;99.90;;;;;;5007756;28;20232;-68
2023/01/04 09:42:10;;;;;;;1.02;0.95;;;6.20;99.90;;;;;;5020598;28;20303;-68
2023/01/04 09:44:43;;;;;;;2.90;1.10;;;6.20;99.90;;;;;;5027589;28;20212;-67
2023/01/04 09:47:13;;;;;;;1.05;0.45;;;6.30;99.90;;;;;;5035455;28;20298;-67
2023/01/04 09:49:45;;;;;;;0.70;0.70;;;5.90;99.90;;;;;;5037689;28;20483;-67
2023/01/04 09:52:16;;;;;;;0.50;0.50;;;6.30;99.90;;;;;;5028075;28;20214;-67
2023/01/04 09:54:47;;;;;;;0.40;0.30;;;6.40;99.90;;;;;;5015609;28;20213;-67
2023/01/04 09:57:22;;;;;;;1.15;0.50;;;6.40;99.90;;;;;;5045783;28;20210;-67
2023/01/04 09:59:53;;;;;;;0.50;0.40;;;6.40;99.90;;;;;;5032686;28;20650;-70
2023/01/04 10:02:25;;;;;;;0.40;0.30;;;6.50;99.90;;;;;;5034363;28;20189;-67
2023/01/04 10:04:54;;;;;;;0.45;0.45;;;6.50;99.90;;;;;;5027379;28;20212;-68
2023/01/04 10:07:27;;;;;;;0.40;0.40;;;6.50;99.90;;;;;;5031271;28;20204;-68
2023/01/04 10:09:54;;;;;;;0.85;0.40;;;6.60;99.90;;;;;;5047425;28;20713;-67
2023/01/04 10:12:34;;;;;;;0.30;0.20;;;6.60;99.90;;;;;;5046882;28;20604;-70
2023/01/04 10:15:19;;;;;;;0.70;0.50;;;6.70;99.90;;;;;;5032340;28;20198;-67
2023/01/04 10:17:56;;;;;;;0.40;0.30;;;6.70;99.90;;;;;;5010719;28;20213;-67
2023/01/04 10:20:55;;;;;;;0.50;0.43;;;6.70;99.90;;;;;;5007456;28;20233;-67
2023/01/04 10:23:32;;;;;;;0.43;0.43;;;6.70;99.90;;;;;;5022796;28;20200;-68
2023/01/04 10:26:06;;;;;;;1.42;0.80;;;6.70;99.90;;;;;;5027131;28;20734;-67
2023/01/04 10:28:46;;;;;;;0.30;0.22;;;6.80;99.90;;;;;;5042043;28;20207;-68
2023/01/04 10:31:17;;;;;;;0.73;0.40;;;6.80;99.90;;;;;;5046576;28;20210;-68
2023/01/04 10:33:47;;;;;;;0.45;0.45;;;6.70;99.90;;;;;;5030247;28;20211;-67
2023/01/04 10:36:19;;;;;;;0.68;0.50;;;6.80;99.90;;;;;;5027514;28;20804;-68
2023/01/04 10:38:46;;;;;;;0.30;0.20;;;6.70;99.90;;;;;;5047384;28;20257;-70
2023/01/04 10:41:23;;;;;;;0.40;0.40;;;6.90;99.90;;;;;;5014831;28;20320;-67
2023/01/04 10:44:01;;;;;;;0.50;0.40;;;6.80;99.90;;;;;;5027696;28;20327;-68
2023/01/04 10:46:32;;;;;;;0.93;0.85;;;6.90;99.90;;;;;;5029535;28;20211;-67
2023/01/04 10:49:06;;;;;;;0.30;0.30;;;6.90;99.90;;;;;;5015433;28;20844;-68
2023/01/04 10:51:41;;;;;;;0.63;0.50;;;7.00;99.90;;;;;;5013680;28;20227;-67
2023/01/04 10:54:16;;;;;;;0.73;0.38;;;7.00;99.90;;;;;;5049218;28;20661;-68
2023/01/04 10:56:49;;;;;;;1.13;0.50;;;7.20;99.90;;;;;;5049913;28;20662;-69
2023/01/04 10:59:22;;;;;;;1.60;0.60;;;7.30;99.90;;;;;;5040928;28;20197;-68
2023/01/04 11:01:53;;;;;;;0.40;0.30;;;7.30;99.90;;;;;;5030551;28;20240;-68
2023/01/04 11:04:25;;;;;;;0.70;0.50;;;7.40;99.90;;;;;;5024652;28;20205;-68
2023/01/04 11:06:59;;;;;;;0.90;0.70;;;7.40;99.90;;;;;;5037582;28;20615;-68
2023/01/04 11:09:32;;;;;;;1.30;0.40;;;7.40;99.90;;;;;;5030127;28;20206;-68
2023/01/04 11:12:02;;;;;;;0.70;0.40;;;7.40;99.90;;;;;;5045754;28;20210;-67
2023/01/04 11:14:28;;;;;;;0.40;0.30;;;7.40;99.90;;;;;;5048471;28;20218;-67
2023/01/04 11:17:00;;;;;;;0.60;0.32;;;7.50;99.90;;;;;;5045035;28;20207;-68
2023/01/04 11:19:28;;;;;;;1.08;0.43;;;7.60;99.90;;;;;;5030295;28;20213;-67
2023/01/04 11:22:00;;;;;;;0.30;0.30;;;7.60;99.90;;;;;;5039768;28;20959;-68
2023/01/04 11:24:30;;;;;;;0.70;0.70;;;7.50;99.90;;;;;;5050101;28;20204;-68
2023/01/04 11:26:58;;;;;;;0.65;0.65;;;7.60;99.90;;;;;;5048652;28;20637;-68
2023/01/04 11:29:32;;;;;;;0.70;0.40;;;7.40;99.90;;;;;;5029520;28;20207;-68
2023/01/04 11:32:02;;;;;;;0.30;0.25;;;7.70;99.90;;;;;;5030079;28;20694;-67
2023/01/04 11:34:45;;;;;;;0.70;0.43;;;7.80;99.90;;;;;;5030089;28;20215;-67
2023/01/04 11:37:27;;;;;;;0.30;0.20;;;7.80;99.90;;;;;;5036385;28;20208;-67
2023/01/04 11:40:12;;;;;;;0.40;0.30;;;7.80;99.90;;;;;;5049438;28;20669;-69
2023/01/04 11:42:39;;;;;;;0.40;0.40;;;7.70;99.90;;;;;;5027149;28;20201;-67
2023/01/04 11:45:06;;;;;;;0.60;0.30;;;7.80;99.90;;;;;;5029891;28;20631;-67
2023/01/04 11:47:33;;;;;;;0.80;0.80;;;7.80;99.90;;;;;;5030133;28;20631;-67
2023/01/04 11:50:00;;;;;;;0.30;0.20;;;7.80;99.90;;;;;;5029980;28;20615;-69
2023/01/04 11:52:32;;;;;;;0.70;0.70;;;7.90;99.90;;;;;;5031777;28;20632;-67
2023/01/04 11:55:16;;;;;;;0.60;0.60;;;7.90;99.90;;;;;;5039891;28;20636;-67
2023/01/04 11:57:43;;;;;;;1.33;0.40;;;8.00;99.90;;;;;;5035907;28;21210;-67
2023/01/04 12:00:14;;;;;;;1.17;1.03;;;8.10;99.90;;;;;;5029738;28;20651;-68
2023/01/04 12:02:41;;;;;;;0.40;0.30;;;8.00;99.90;;;;;;5029680;28;20634;-67
2023/01/04 12:05:18;;;;;;;0.40;0.40;;;8.10;99.90;;;;;;5029175;28;20631;-67
2023/01/04 12:07:47;;;;;;;2.00;0.73;;;8.10;99.90;;;;;;5019950;28;21019;-67
2023/01/04 12:10:23;;;;;;;0.67;0.60;;;8.20;99.90;;;;;;5009554;28;20635;-68
2023/01/04 12:12:50;;;;;;;0.40;0.40;;;8.10;99.90;;;;;;5022906;28;20713;-67
2023/01/04 12:15:23;;;;;;;0.77;0.40;;;8.20;99.90;;;;;;5028775;28;20623;-68
2023/01/04 12:17:56;;;;;;;1.10;0.23;;;8.30;99.90;;;;;;5029075;28;21035;-67
2023/01/04 12:20:28;;;;;;;0.73;0.50;;;8.30;99.90;;;;;;5018597;28;20660;-67
2023/01/04 12:22:56;;;;;;;0.50;0.50;;;8.30;99.90;;;;;;5028727;28;20622;-67
2023/01/04 12:25:32;;;;;;;0.30;0.20;;;8.40;99.90;;;;;;5049476;28;20673;-67
2023/01/04 12:27:59;;;;;;;0.30;0.20;;;8.20;99.90;;;;;;5037723;28;20634;-68
2023/01/04 12:30:40;;;;;;;0.47;0.23;;;8.40;99.90;;;;;;5028864;28;21177;-67
2023/01/04 12:33:39;;;;;;;0.30;0.23;;;8.30;99.90;;;;;;5035383;28;20642;-67
2023/01/04 12:36:07;;;;;;;0.30;0.20;;;8.40;99.90;;;;;;5023306;28;20639;-68
2023/01/04 12:38:58;;;;;;;1.13;1.00;;;8.50;99.90;;;;;;5023291;28;20663;-67
2023/01/04 12:41:40;;;;;;;0.60;0.30;;;8.50;99.90;;;;;;5016341;28;21346;-67
2023/01/04 12:44:50;;;;;;;0.40;0.40;;;8.60;99.90;;;;;;5028369;28;20646;-67
2023/01/04 12:50:26;;;;;;;0.50;0.40;;;8.70;99.90;;;;;;5009007;28;20636;-68
2023/01/04 12:52:54;;;;;;;0.70;0.70;;;8.60;99.90;;;;;;5008155;28;20638;-67
2023/01/04 12:55:57;;;;;;;0.57;0.37;;;8.70;99.90;;;;;;5031325;28;20615;-67
2023/01/04 12:59:09;;;;;;;1.43;0.50;;;8.80;99.90;;;;;;5019561;28;20635;-68
2023/01/04 13:01:37;;;;;;;0.73;0.60;;;8.80;99.90;;;;;;4966839;28;20792;-68
2023/01/04 13:04:38;;;;;;;1.80;0.53;;;8.80;99.90;;;;;;5020430;28;20709;-67
2023/01/04 13:07:13;;;;;;;0.50;0.47;;;8.70;99.90;;;;;;5030354;28;21176;-67
2023/01/04 13:09:44;;;;;;;0.50;0.50;;;9.00;99.90;;;;;;5027582;28;20641;-67
2023/01/04 13:12:20;;;;;;;1.43;0.63;;;8.80;99.90;;;;;;5027729;28;21185;-68
2023/01/04 13:14:49;;;;;;;0.30;0.30;;;8.80;99.90;;;;;;5028385;28;20641;-67
2023/01/04 13:17:22;;;;;;;0.60;0.50;;;8.90;99.90;;;;;;5034037;28;20684;-67
2023/01/04 13:19:50;;;;;;;0.60;0.50;;;9.00;99.90;;;;;;5028120;28;20710;-68
2023/01/04 13:22:21;;;;;;;0.30;0.30;;;8.90;99.90;;;;;;5028826;28;20979;-67
2023/01/04 13:24:50;;;;;;;0.30;0.30;;;8.90;99.90;;;;;;5028509;28;20630;-67
2023/01/04 13:27:19;;;;;;;0.67;0.37;;;8.90;99.90;;;;;;5030464;28;20674;-67
2023/01/04 13:29:46;;;;;;;0.47;0.47;;;8.90;99.90;;;;;;5048126;28;20630;-67
2023/01/04 13:32:18;;;;;;;0.60;0.30;;;8.90;99.90;;;;;;5044645;28;20610;-67
2023/01/04 13:34:51;;;;;;;0.70;0.40;;;9.00;99.90;;;;;;5027602;28;20620;-67
2023/01/04 13:37:27;;;;;;;0.53;0.50;;;9.10;99.90;;;;;;5038689;28;20996;-68
2023/01/04 13:40:14;;;;;;;0.40;0.33;;;9.10;99.90;;;;;;5048004;28;21055;-67
2023/01/04 13:42:43;;;;;;;0.30;0.20;;;9.10;99.90;;;;;;5027385;28;20812;-68
2023/01/04 13:45:25;;;;;;;0.30;0.20;;;9.10;99.90;;;;;;5027355;28;21219;-67
2023/01/04 13:47:57;;;;;;;0.40;0.40;;;9.10;99.90;;;;;;5035568;28;21386;-67
2023/01/04 13:50:35;;;;;;;0.30;0.30;;;9.10;99.90;;;;;;5033283;28;20631;-67
2023/01/04 13:53:02;;;;;;;1.03;0.60;;;9.10;99.90;;;;;;5037410;28;20622;-67
2023/01/04 13:55:30;;;;;;;0.30;0.23;;;9.10;99.90;;;;;;5045190;28;20625;-67
2023/01/04 13:57:59;;;;;;;0.80;0.40;;;9.20;99.90;;;;;;5022846;28;20754;-67
2023/01/04 14:00:29;;;;;;;0.93;0.70;;;9.20;99.90;;;;;;5017079;28;20662;-67
2023/01/04 14:03:08;;;;;;;0.80;0.40;;;9.30;99.90;;;;;;5025822;28;21210;-67